Time;durP1;ratioP1;P1;durP2;ratioP2;P2;SDS_P1;SDS_P2;PMS_P1;PMS_P2;Temp;Humidity;BMP_temperature;BMP_pressure;BME280_temperature;BME280_humidity;BME280_pressure;Samples;Min_cycle;Max_cycle;Signal;HPM_P1;HPM_P2
2022/07/02 00:01:49;;;;;;;6.30;5.00;;;;;;100566.49;;;;104900;1310;35754;-35
2022/07/02 00:04:26;;;;;;;6.70;5.80;;;;;;100566.34;;;;104860;1305;33769;-35
2022/07/02 00:06:59;;;;;;;7.10;5.30;;;;;;100564.45;;;;104927;1311;33871;-35
2022/07/02 00:09:32;;;;;;;7.10;5.80;;;;;;100564.14;;;;104897;1307;33949;-35
2022/07/02 00:12:07;;;;;;;6.50;5.40;;;;;;100575.92;;;;104891;1311;33618;-35
2022/07/02 00:14:42;;;;;;;7.30;5.50;;;;;;100579.59;;;;104878;1308;33279;-35
2022/07/02 00:17:16;;;;;;;7.60;5.90;;;;;;100590.48;;;;104900;1311;33225;-35
2022/07/02 00:19:50;;;;;;;6.60;5.40;;;;;;100604.55;;;;104873;1311;35448;-35
2022/07/02 00:22:23;;;;;;;7.20;5.90;;;;;;100607.16;;;;104893;1308;33507;-35
2022/07/02 00:24:56;;;;;;;7.70;5.80;;;;;;100604.41;;;;104873;1311;35628;-35
2022/07/02 00:27:32;;;;;;;8.50;5.90;;;;;;100612.23;;;;104887;1311;33801;-35
2022/07/02 00:30:08;;;;;;;8.00;6.20;;;;;;100626.60;;;;104845;1311;34194;-35
2022/07/02 00:32:44;;;;;;;7.10;5.80;;;;;;100632.10;;;;104872;1311;32863;-35
2022/07/02 00:35:17;;;;;;;6.60;5.50;;;;;;100621.69;;;;104936;1311;35794;-35
2022/07/02 00:37:49;;;;;;;7.00;5.70;;;;;;100600.48;;;;105040;1305;34458;-35
2022/07/02 00:40:22;;;;;;;6.90;6.10;;;;;;100606.20;;;;105001;1308;33509;-35
2022/07/02 00:42:55;;;;;;;7.20;5.90;;;;;;100609.44;;;;105022;1311;34293;-35
2022/07/02 00:45:26;;;;;;;;;;;;;;100585.54;;;;105011;1311;34850;-35
2022/07/02 00:48:00;;;;;;;8.20;6.40;;;;;;100539.95;;;;104988;1308;34600;-35
2022/07/02 00:50:32;;;;;;;7.90;6.70;;;;;;100505.11;;;;104973;1308;34855;-35
2022/07/02 00:53:05;;;;;;;7.90;7.10;;;;;;100519.05;;;;104956;1310;33683;-35
2022/07/02 00:55:37;;;;;;;8.50;7.10;;;;;;100535.05;;;;104936;1309;35298;-35
2022/07/02 00:58:10;;;;;;;8.00;6.70;;;;;;100549.31;;;;104941;1308;33216;-35
2022/07/02 01:00:43;;;;;;;8.70;6.60;;;;;;100578.60;;;;104938;1311;35024;-35
2022/07/02 01:03:16;;;;;;;8.30;6.50;;;;;;100602.89;;;;104936;1308;33935;-35
2022/07/02 01:05:50;;;;;;;8.70;7.50;;;;;;100616.15;;;;104912;1305;35072;-35
2022/07/02 01:11:17;;;;;;;8.10;6.80;;;;;;100619.91;;;;104894;1305;33902;-35
2022/07/02 01:13:50;;;;;;;8.30;7.20;;;;;;100623.77;;;;104954;1309;35117;-35
2022/07/02 01:16:21;;;;;;;;;;;;;;100610.58;;;;104911;1309;35703;-35
2022/07/02 01:18:54;;;;;;;8.10;6.80;;;;;;100604.20;;;;104872;1309;34683;-35
2022/07/02 01:21:26;;;;;;;8.00;6.40;;;;;;100618.90;;;;104908;1309;33195;-35
2022/07/02 01:23:59;;;;;;;8.00;6.70;;;;;;100630.20;;;;104911;1311;34304;-35
2022/07/02 01:26:31;;;;;;;7.90;7.00;;;;;;100613.72;;;;104872;1309;33404;-35
2022/07/02 01:29:05;;;;;;;7.90;7.00;;;;;;100594.48;;;;104884;1308;35344;-35
2022/07/02 01:31:38;;;;;;;7.60;6.60;;;;;;100605.45;;;;104919;1308;34146;-35
2022/07/02 01:34:10;;;;;;;8.10;6.70;;;;;;100622.75;;;;104884;1311;35684;-35
2022/07/02 01:36:43;;;;;;;7.50;6.70;;;;;;100626.35;;;;104889;1309;34772;-35
2022/07/02 01:39:16;;;;;;;8.40;7.40;;;;;;100623.64;;;;104909;1311;32709;-35
2022/07/02 01:41:51;;;;;;;8.30;7.00;;;;;;100615.15;;;;104871;1311;34615;-35
2022/07/02 01:44:24;;;;;;;7.80;7.00;;;;;;100612.29;;;;104908;1308;33528;-35
2022/07/02 01:46:57;;;;;;;7.80;7.00;;;;;;100613.56;;;;104911;1305;35557;-35
2022/07/02 01:49:30;;;;;;;8.10;7.30;;;;;;100611.21;;;;104896;1308;35518;-35
2022/07/02 01:52:04;;;;;;;8.40;7.40;;;;;;100611.99;;;;105031;1309;33216;-35
2022/07/02 01:54:39;;;;;;;8.90;8.00;;;;;;100613.55;;;;104901;1311;33392;-35
2022/07/02 01:57:13;;;;;;;9.10;7.90;;;;;;100612.51;;;;104983;1311;33194;-35
2022/07/02 01:59:45;;;;;;;9.40;8.00;;;;;;100627.86;;;;104939;1311;33279;-35
2022/07/02 02:02:18;;;;;;;9.10;8.10;;;;;;100641.01;;;;104930;1307;34180;-35
2022/07/02 02:04:50;;;;;;;9.20;8.30;;;;;;100645.58;;;;104922;1309;35873;-35
2022/07/02 02:07:24;;;;;;;9.90;8.90;;;;;;100661.98;;;;104877;1308;33919;-35
2022/07/02 02:09:57;;;;;;;8.60;7.70;;;;;;100664.23;;;;104896;1311;34501;-35
2022/07/02 02:12:29;;;;;;;9.50;8.50;;;;;;100662.77;;;;104909;1303;35085;-35
2022/07/02 02:15:01;;;;;;;9.40;8.30;;;;;;100681.70;;;;104895;1305;34957;-35
2022/07/02 02:17:34;;;;;;;9.20;8.30;;;;;;100685.44;;;;104879;1311;35384;-35
2022/07/02 02:20:10;;;;;;;9.80;8.80;;;;;;100680.73;;;;104878;1308;35235;-35
2022/07/02 02:22:42;;;;;;;9.50;8.50;;;;;;100674.89;;;;104899;1311;34154;-35
2022/07/02 02:25:18;;;;;;;9.80;8.80;;;;;;100670.73;;;;104924;1311;33567;-35
2022/07/02 02:27:51;;;;;;;9.70;8.70;;;;;;100668.49;;;;104842;1308;33379;-35
2022/07/02 02:30:24;;;;;;;9.50;8.50;;;;;;100666.54;;;;104893;1308;34139;-35
2022/07/02 02:32:56;;;;;;;9.50;8.60;;;;;;100665.75;;;;104753;1309;35168;-35
2022/07/02 02:35:29;;;;;;;9.60;8.60;;;;;;100673.02;;;;104900;1308;34923;-35
2022/07/02 02:38:02;;;;;;;9.00;8.20;;;;;;100680.19;;;;104840;1308;33169;-35
2022/07/02 02:40:34;;;;;;;9.40;8.60;;;;;;100678.64;;;;104844;1311;33848;-35
2022/07/02 02:43:07;;;;;;;9.50;8.60;;;;;;100677.84;;;;104894;1311;34548;-35
2022/07/02 02:45:40;;;;;;;9.90;8.60;;;;;;100680.05;;;;104844;1305;35111;-35
2022/07/02 02:48:12;;;;;;;10.70;9.70;;;;;;100686.11;;;;104833;1309;35541;-35
2022/07/02 02:50:45;;;;;;;10.10;9.10;;;;;;100693.92;;;;104848;1311;34525;-35
2022/07/02 02:53:18;;;;;;;9.60;8.70;;;;;;100691.95;;;;104860;1308;33719;-35
2022/07/02 02:55:50;;;;;;;9.90;8.90;;;;;;100690.57;;;;104844;1308;34801;-35
2022/07/02 02:58:25;;;;;;;9.30;8.20;;;;;;100684.33;;;;104869;1308;35358;-35
2022/07/02 03:00:58;;;;;;;9.80;8.80;;;;;;100676.63;;;;104822;1308;35340;-35
2022/07/02 03:03:31;;;;;;;10.00;9.00;;;;;;100666.66;;;;104914;1308;35186;-35
2022/07/02 03:06:04;;;;;;;10.60;9.60;;;;;;100654.33;;;;104868;1311;33545;-35
2022/07/02 03:08:37;;;;;;;10.20;9.20;;;;;;100643.99;;;;104884;1311;34097;-35
2022/07/02 03:11:09;;;;;;;10.40;9.40;;;;;;100638.16;;;;104867;1311;35030;-35
2022/07/02 03:13:42;;;;;;;10.10;9.10;;;;;;100643.39;;;;104816;1307;35175;-35
2022/07/02 03:16:16;;;;;;;;;;;;;;100643.70;;;;104762;1312;34712;-35
2022/07/02 03:18:49;;;;;;;10.10;9.10;;;;;;100629.68;;;;104736;1314;33755;-35
2022/07/02 03:21:21;;;;;;;10.50;9.40;;;;;;100624.38;;;;104754;1317;34516;-35
2022/07/02 03:23:53;;;;;;;10.00;9.10;;;;;;100641.98;;;;104830;1308;33775;-35
2022/07/02 03:26:28;;;;;;;10.10;9.10;;;;;;100653.95;;;;104769;1307;32809;-35
2022/07/02 03:29:01;;;;;;;10.70;9.70;;;;;;100657.77;;;;104774;1306;34128;-35
2022/07/02 03:31:33;;;;;;;11.10;10.10;;;;;;100665.84;;;;104760;1307;35249;-35
2022/07/02 03:34:06;;;;;;;10.80;9.80;;;;;;100669.36;;;;104735;1310;35265;-35
2022/07/02 03:36:39;;;;;;;10.80;9.70;;;;;;100660.15;;;;104764;1309;33650;-35
2022/07/02 03:39:12;;;;;;;11.20;10.00;;;;;;100648.88;;;;104740;1305;34063;-35
2022/07/02 03:41:50;;;;;;;10.90;9.90;;;;;;100650.30;;;;104731;1305;33219;-35
2022/07/02 03:44:23;;;;;;;11.90;10.70;;;;;;100663.91;;;;104768;1309;33608;-35
2022/07/02 03:46:55;;;;;;;10.80;9.70;;;;;;100659.13;;;;104760;1311;33988;-35
2022/07/02 03:49:28;;;;;;;10.70;9.70;;;;;;100666.96;;;;104753;1309;34499;-35
2022/07/02 03:52:03;;;;;;;11.50;10.00;;;;;;100687.64;;;;104735;1311;33834;-35
2022/07/02 03:54:37;;;;;;;11.10;10.00;;;;;;100698.65;;;;104726;1311;35582;-35
2022/07/02 03:57:10;;;;;;;11.70;9.80;;;;;;100697.59;;;;104710;1313;34439;-35
2022/07/02 03:59:43;;;;;;;11.00;9.90;;;;;;100699.70;;;;104774;1308;34512;-35
2022/07/02 04:02:16;;;;;;;10.70;9.70;;;;;;100699.46;;;;104699;1312;35197;-35
2022/07/02 04:04:48;;;;;;;10.60;9.50;;;;;;100708.41;;;;104692;1313;35469;-35
2022/07/02 04:07:21;;;;;;;10.60;9.60;;;;;;100714.27;;;;104721;1309;34852;-35
2022/07/02 04:09:53;;;;;;;10.90;9.70;;;;;;100706.67;;;;104689;1309;35419;-35
2022/07/02 04:12:27;;;;;;;10.50;9.50;;;;;;100707.70;;;;104703;1314;34570;-35
2022/07/02 04:14:59;;;;;;;10.40;9.40;;;;;;100702.61;;;;104769;1305;33682;-35
2022/07/02 04:17:32;;;;;;;10.40;9.40;;;;;;100705.51;;;;104814;1308;35816;-35
2022/07/02 04:20:08;;;;;;;10.40;9.30;;;;;;100705.23;;;;104841;1314;34038;-35
2022/07/02 04:22:41;;;;;;;9.90;8.90;;;;;;100709.42;;;;104859;1313;35645;-35
2022/07/02 04:25:14;;;;;;;9.90;9.00;;;;;;100721.90;;;;104802;1309;32583;-35
2022/07/02 04:27:47;;;;;;;9.70;8.70;;;;;;100722.90;;;;104818;1308;34613;-35
2022/07/02 04:30:22;;;;;;;9.90;9.00;;;;;;100713.14;;;;104682;1313;213983;-35
2022/07/02 04:32:54;;;;;;;10.40;9.40;;;;;;100714.48;;;;104802;1311;35466;-35
2022/07/02 04:35:27;;;;;;;9.90;8.90;;;;;;100706.71;;;;104803;1309;34063;-35
2022/07/02 04:38:00;;;;;;;10.70;9.70;;;;;;100702.54;;;;104792;1307;34095;-35
2022/07/02 04:40:33;;;;;;;9.90;8.80;;;;;;100721.85;;;;104768;1305;34589;-35
2022/07/02 04:43:04;;;;;;;;;;;;;;100731.34;;;;104818;1307;33630;-35
2022/07/02 04:45:36;;;;;;;9.70;8.70;;;;;;100730.17;;;;104794;1314;35134;-35
2022/07/02 04:48:11;;;;;;;10.50;9.50;;;;;;100737.30;;;;104773;1309;34369;-35
2022/07/02 04:50:47;;;;;;;10.40;9.30;;;;;;100742.55;;;;104771;1312;34544;-35
2022/07/02 04:53:22;;;;;;;11.00;9.80;;;;;;100753.94;;;;104774;1312;35196;-35
2022/07/02 04:55:54;;;;;;;11.10;10.00;;;;;;100758.62;;;;104843;1304;34725;-35
2022/07/02 04:58:27;;;;;;;11.40;9.80;;;;;;100755.97;;;;104782;1314;34598;-35
2022/07/02 05:00:58;;;;;;;;;;;;;;100766.71;;;;104804;1308;35127;-35
2022/07/02 05:03:31;;;;;;;10.10;9.00;;;;;;100772.92;;;;104815;1311;33870;-35
2022/07/02 05:06:04;;;;;;;9.90;8.90;;;;;;100778.41;;;;104824;1314;35088;-35
2022/07/02 05:08:39;;;;;;;10.10;9.10;;;;;;100784.11;;;;104866;1309;34068;-35
2022/07/02 05:11:11;;;;;;;9.60;8.70;;;;;;100787.73;;;;104693;1308;34288;-35
2022/07/02 05:13:44;;;;;;;9.50;7.90;;;;;;100791.28;;;;104814;1313;34975;-35
2022/07/02 05:16:17;;;;;;;8.80;7.90;;;;;;100798.13;;;;104830;1312;35253;-35
2022/07/02 05:18:50;;;;;;;9.00;8.00;;;;;;100800.33;;;;104804;1309;33484;-35
2022/07/02 05:21:24;;;;;;;;;;;;;;100803.17;;;;104813;1311;33426;-35
2022/07/02 05:23:56;;;;;;;9.80;7.50;;;;;;100808.90;;;;104813;1313;34530;-35
2022/07/02 05:26:29;;;;;;;8.80;6.90;;;;;;100817.52;;;;104768;1312;35620;-35
2022/07/02 05:29:02;;;;;;;7.40;6.70;;;;;;100818.02;;;;104856;1304;34703;-35
2022/07/02 05:31:35;;;;;;;8.30;6.80;;;;;;100816.79;;;;104883;1306;34623;-35
2022/07/02 05:34:07;;;;;;;8.00;6.80;;;;;;100818.49;;;;104815;1309;35143;-35
2022/07/02 05:36:40;;;;;;;7.30;6.50;;;;;;100814.35;;;;104869;1314;35595;-35
2022/07/02 05:39:12;;;;;;;8.10;6.80;;;;;;100813.52;;;;104811;1313;33696;-35
2022/07/02 05:41:45;;;;;;;7.50;6.40;;;;;;100812.34;;;;104808;1309;33847;-35
2022/07/02 05:44:17;;;;;;;7.90;6.10;;;;;;100819.38;;;;104806;1313;35124;-35
2022/07/02 05:46:50;;;;;;;6.60;5.90;;;;;;100824.58;;;;104844;1311;35169;-35
2022/07/02 05:49:22;;;;;;;7.40;5.80;;;;;;100829.20;;;;104862;1314;33437;-35
2022/07/02 05:51:55;;;;;;;7.50;6.30;;;;;;100832.10;;;;104801;1305;34501;-35
2022/07/02 05:54:27;;;;;;;6.80;5.60;;;;;;100834.59;;;;104862;1308;35118;-35
2022/07/02 05:57:02;;;;;;;6.80;5.90;;;;;;100835.40;;;;104853;1307;35712;-35
2022/07/02 05:59:34;;;;;;;7.10;5.90;;;;;;100838.15;;;;104828;1309;35620;-35
2022/07/02 06:02:09;;;;;;;6.90;5.70;;;;;;100838.34;;;;104829;1308;34778;-35
2022/07/02 06:04:41;;;;;;;6.90;5.80;;;;;;100840.92;;;;104721;1314;34758;-35
2022/07/02 06:10:04;;;;;;;6.90;5.80;;;;;;100837.71;;;;104873;1308;34045;-35
2022/07/02 06:12:37;;;;;;;6.80;5.70;;;;;;100838.27;;;;104878;1308;33372;-35
2022/07/02 06:15:11;;;;;;;6.70;6.00;;;;;;100835.00;;;;104843;1305;34384;-35
2022/07/02 06:17:44;;;;;;;6.60;5.20;;;;;;100838.76;;;;104867;1311;35636;-35
2022/07/02 06:20:17;;;;;;;6.10;5.50;;;;;;100840.84;;;;104862;1305;33631;-35
2022/07/02 06:22:50;;;;;;;7.20;5.80;;;;;;100842.98;;;;104914;1309;34243;-35
2022/07/02 06:25:24;;;;;;;7.20;6.00;;;;;;100844.10;;;;104884;1307;35133;-35
2022/07/02 06:27:57;;;;;;;6.30;5.50;;;;;;100848.14;;;;104906;1311;34215;-35
2022/07/02 06:30:30;;;;;;;7.70;5.80;;;;;;100854.48;;;;104876;1311;35153;-35
2022/07/02 06:33:04;;;;;;;6.80;5.60;;;;;;100856.57;;;;104844;1311;34616;-35
2022/07/02 06:35:36;;;;;;;6.80;5.70;;;;;;100862.91;;;;104860;1308;35341;-35
2022/07/02 06:38:09;;;;;;;7.40;5.80;;;;;;100865.11;;;;104841;1309;33847;-35
2022/07/02 06:40:42;;;;;;;6.90;5.70;;;;;;100872.35;;;;104865;1309;33627;-35
2022/07/02 06:43:15;;;;;;;7.10;5.50;;;;;;100876.60;;;;104881;1305;33977;-35
2022/07/02 06:45:47;;;;;;;6.60;5.80;;;;;;100891.85;;;;104887;1305;34540;-35
2022/07/02 06:48:20;;;;;;;6.20;5.40;;;;;;100893.38;;;;104927;1305;34138;-35
2022/07/02 06:50:55;;;;;;;6.10;5.30;;;;;;100900.92;;;;104898;1308;35214;-35
2022/07/02 06:53:28;;;;;;;6.70;5.10;;;;;;100902.56;;;;104889;1311;35511;-35
2022/07/02 06:56:01;;;;;;;5.90;5.30;;;;;;100906.38;;;;104877;1309;34529;-35
2022/07/02 06:58:33;;;;;;;6.30;5.20;;;;;;100913.34;;;;104840;1311;33603;-35
2022/07/02 07:01:05;;;;;;;6.10;5.00;;;;;;100914.16;;;;104848;1308;34435;-35
2022/07/02 07:03:38;;;;;;;6.40;5.20;;;;;;100916.85;;;;104839;1308;35606;-35
2022/07/02 07:06:11;;;;;;;5.70;4.90;;;;;;100922.59;;;;104906;1313;33864;-35
2022/07/02 07:08:42;;;;;;;;;;;;;;100928.21;;;;104872;1308;34061;-35
2022/07/02 07:11:14;;;;;;;5.20;4.50;;;;;;100933.40;;;;104888;1308;33749;-35
2022/07/02 07:13:47;;;;;;;5.60;5.00;;;;;;100939.37;;;;104899;1308;33394;-35
2022/07/02 07:16:22;;;;;;;5.60;4.70;;;;;;100941.05;;;;104916;1311;33820;-35
2022/07/02 07:18:55;;;;;;;6.10;4.70;;;;;;100949.59;;;;104797;1311;35618;-35
2022/07/02 07:21:25;;;;;;;;;;;;;;100954.94;;;;104872;1312;32816;-35
2022/07/02 07:24:00;;;;;;;5.90;4.60;;;;;;100952.23;;;;104889;1308;33474;-35
2022/07/02 07:26:33;;;;;;;5.50;4.40;;;;;;100959.89;;;;104857;1311;36110;-35
2022/07/02 07:29:06;;;;;;;5.50;4.20;;;;;;100968.67;;;;104886;1311;35060;-35
2022/07/02 07:31:38;;;;;;;;;;;;;;100970.41;;;;104843;1304;34068;-35
2022/07/02 07:34:16;;;;;;;5.20;4.30;;;;;;100971.31;;;;104871;1311;33815;-35
2022/07/02 07:36:50;;;;;;;5.60;4.80;;;;;;100977.91;;;;104887;1311;33331;-35
2022/07/02 07:39:23;;;;;;;5.00;4.40;;;;;;100986.41;;;;104844;1308;33470;-35
2022/07/02 07:41:56;;;;;;;5.10;4.30;;;;;;100984.10;;;;104887;1311;33522;-35
2022/07/02 07:44:31;;;;;;;5.70;4.80;;;;;;100983.48;;;;104871;1311;35290;-35
2022/07/02 07:47:05;;;;;;;5.30;4.30;;;;;;100986.88;;;;104858;1309;34539;-35
2022/07/02 07:49:38;;;;;;;6.00;4.80;;;;;;100987.70;;;;104871;1311;35105;-35
2022/07/02 07:52:11;;;;;;;5.70;4.40;;;;;;100987.30;;;;104828;1309;33905;-35
2022/07/02 07:54:42;;;;;;;;;;;;;;100989.74;;;;104854;1308;35191;-35
2022/07/02 07:57:15;;;;;;;5.40;4.60;;;;;;100992.98;;;;104790;1311;33247;-35
2022/07/02 07:59:47;;;;;;;5.70;5.10;;;;;;101002.65;;;;104838;1307;32789;-35
2022/07/02 08:02:20;;;;;;;6.10;5.20;;;;;;101004.88;;;;104669;1314;33526;-35
2022/07/02 08:04:55;;;;;;;5.40;4.80;;;;;;101008.95;;;;104852;1311;34050;-35
2022/07/02 08:07:28;;;;;;;6.20;5.00;;;;;;101013.61;;;;104852;1311;33753;-35
2022/07/02 08:09:59;;;;;;;;;;;;;;101016.23;;;;104860;1311;35663;-35
2022/07/02 08:12:32;;;;;;;6.30;5.40;;;;;;101017.57;;;;104858;1308;33152;-35
2022/07/02 08:15:06;;;;;;;5.90;5.30;;;;;;101019.77;;;;104805;1311;35336;-35
2022/07/02 08:17:39;;;;;;;6.10;5.20;;;;;;101021.88;;;;104658;1312;35383;-35
2022/07/02 08:20:36;;;;;;;;;;;;;;101025.90;;;;104835;1308;34927;-45
2022/07/02 08:23:08;;;;;;;6.80;6.10;;;;;;101032.72;;;;104314;1317;33307;-38
2022/07/02 08:25:41;;;;;;;7.20;6.40;;;;;;101031.58;;;;104354;1317;35281;-36
2022/07/02 08:28:17;;;;;;;7.60;5.70;;;;;;101035.49;;;;104367;1317;32714;-37
2022/07/02 08:30:49;;;;;;;8.70;7.00;;;;;;101035.73;;;;104312;1312;33717;-38
2022/07/02 08:33:21;;;;;;;7.80;7.00;;;;;;101045.98;;;;104311;1314;34070;-38
2022/07/02 08:35:54;;;;;;;8.50;6.80;;;;;;101045.50;;;;104336;1314;35372;-38
2022/07/02 08:38:27;;;;;;;7.80;6.70;;;;;;101050.69;;;;104291;1313;34539;-35
2022/07/02 08:40:59;;;;;;;8.30;7.20;;;;;;101041.08;;;;104330;1317;35320;-37
2022/07/02 08:43:32;;;;;;;8.00;6.90;;;;;;101044.91;;;;104338;1314;35086;-37
2022/07/02 08:46:04;;;;;;;;;;;;;;101043.39;;;;104326;1317;33909;-37
2022/07/02 08:48:38;;;;;;;8.60;7.50;;;;;;101048.66;;;;104382;1316;34038;-37
2022/07/02 08:51:13;;;;;;;10.30;7.10;;;;;;101053.35;;;;104314;1314;33490;-37
2022/07/02 08:53:45;;;;;;;8.60;7.70;;;;;;101051.33;;;;104343;1317;34556;-37
2022/07/02 08:56:19;;;;;;;8.60;7.80;;;;;;101051.58;;;;104365;1317;33535;-37
2022/07/02 08:58:52;;;;;;;8.70;7.20;;;;;;101049.27;;;;104339;1315;33532;-37
2022/07/02 09:01:25;;;;;;;8.40;7.50;;;;;;101046.32;;;;104370;1314;35063;-38
2022/07/02 09:03:58;;;;;;;8.90;8.00;;;;;;101046.89;;;;104335;1317;33674;-38
2022/07/02 09:06:32;;;;;;;8.70;7.80;;;;;;101046.91;;;;104333;1316;35048;-38
2022/07/02 09:09:05;;;;;;;8.80;7.60;;;;;;101056.57;;;;104347;1313;34766;-37
2022/07/02 09:11:36;;;;;;;;;;;;;;101066.38;;;;104367;1317;34665;-37
2022/07/02 09:14:09;;;;;;;9.60;8.70;;;;;;101065.43;;;;104344;1314;35088;-35
2022/07/02 09:16:42;;;;;;;8.50;7.70;;;;;;101073.77;;;;104313;1314;34425;-36
2022/07/02 09:19:14;;;;;;;8.20;7.40;;;;;;101073.93;;;;104319;1317;35809;-37
2022/07/02 09:21:50;;;;;;;9.90;7.50;;;;;;101070.67;;;;104355;1317;34537;-37
2022/07/02 09:24:34;;;;;;;7.80;7.00;;;;;;101071.70;;;;104377;1317;33507;-38
2022/07/02 09:27:12;;;;;;;7.00;6.30;;;;;;101073.33;;;;104334;1314;35201;-38
2022/07/02 09:29:49;;;;;;;7.50;6.50;;;;;;101076.79;;;;104354;1317;35773;-37
2022/07/02 09:32:22;;;;;;;6.40;5.70;;;;;;101075.11;;;;104340;1313;34049;-37
2022/07/02 09:34:56;;;;;;;6.50;5.50;;;;;;101081.72;;;;104333;1314;35310;-39
2022/07/02 09:37:29;;;;;;;6.60;4.60;;;;;;101082.65;;;;104338;1318;33781;-35
2022/07/02 09:40:05;;;;;;;5.10;4.00;;;;;;101086.33;;;;104301;1317;35122;-35
2022/07/02 09:42:38;;;;;;;5.70;3.60;;;;;;101087.23;;;;104347;1318;35645;-41
2022/07/02 09:45:14;;;;;;;4.30;3.30;;;;;;101097.52;;;;104303;1314;35388;-40
2022/07/02 09:47:49;;;;;;;4.60;3.10;;;;;;101099.77;;;;104367;1315;34620;-37
2022/07/02 09:50:24;;;;;;;8.30;3.80;;;;;;101100.89;;;;104327;1312;33860;-37
2022/07/02 09:52:58;;;;;;;4.10;2.80;;;;;;101091.67;;;;104342;1312;33482;-35
2022/07/02 09:55:33;;;;;;;4.30;2.60;;;;;;101083.98;;;;104305;1313;35387;-35
2022/07/02 09:58:07;;;;;;;5.30;2.40;;;;;;101092.31;;;;104347;1318;35734;-35
2022/07/02 10:00:47;;;;;;;3.50;2.30;;;;;;101080.61;;;;104401;1318;35804;-35
2022/07/02 10:03:20;;;;;;;3.90;2.10;;;;;;101095.43;;;;104429;1313;35356;-35
2022/07/02 10:05:54;;;;;;;4.00;2.00;;;;;;101093.83;;;;104326;1317;35585;-35
2022/07/02 10:08:28;;;;;;;3.40;1.80;;;;;;101099.25;;;;104328;1317;35091;-35
2022/07/02 10:11:00;;;;;;;3.30;2.00;;;;;;101105.31;;;;104312;1315;33589;-35
2022/07/02 10:13:36;;;;;;;3.50;2.10;;;;;;101104.66;;;;104339;1314;35433;-35
2022/07/02 10:16:13;;;;;;;4.20;2.20;;;;;;101105.07;;;;104326;1317;35360;-35
2022/07/02 10:18:46;;;;;;;3.80;2.00;;;;;;101112.94;;;;104347;1314;34946;-35
2022/07/02 10:21:18;;;;;;;;;;;;;;101115.27;;;;104315;1317;35680;-35
2022/07/02 10:23:50;;;;;;;3.90;2.30;;;;;;101125.03;;;;104344;1313;34041;-35
2022/07/02 10:26:23;;;;;;;3.00;1.80;;;;;;101122.36;;;;104399;1314;35054;-35
2022/07/02 10:28:56;;;;;;;3.50;2.20;;;;;;101125.02;;;;104401;1317;35105;-35
2022/07/02 10:31:30;;;;;;;3.30;1.80;;;;;;101123.95;;;;104408;1317;33583;-35
2022/07/02 10:34:10;;;;;;;3.80;2.40;;;;;;101131.31;;;;104205;1314;35347;-37
2022/07/02 10:36:43;;;;;;;4.70;2.30;;;;;;101135.83;;;;104321;1317;35968;-37
2022/07/02 10:39:19;;;;;;;3.30;2.10;;;;;;101135.40;;;;104318;1317;35286;-37
2022/07/02 10:41:52;;;;;;;4.20;2.00;;;;;;101133.17;;;;104334;1319;35008;-37
2022/07/02 10:44:24;;;;;;;3.70;2.30;;;;;;101139.65;;;;104347;1317;35347;-36
2022/07/02 10:47:00;;;;;;;4.10;2.40;;;;;;101138.36;;;;104350;1317;34534;-36
2022/07/02 10:49:33;;;;;;;4.10;2.40;;;;;;101141.29;;;;104309;1317;35215;-36
2022/07/02 10:52:08;;;;;;;5.00;2.30;;;;;;101141.45;;;;104318;1317;35161;-35
2022/07/02 10:54:49;;;;;;;3.80;2.10;;;;;;101146.58;;;;104328;1317;35455;-36
2022/07/02 10:57:21;;;;;;;4.20;2.40;;;;;;101145.15;;;;104309;1314;34260;-35
2022/07/02 10:59:54;;;;;;;3.70;2.10;;;;;;101145.85;;;;104313;1315;35406;-35
2022/07/02 11:02:37;;;;;;;5.30;2.20;;;;;;101150.21;;;;104321;1314;33580;-36
2022/07/02 11:05:15;;;;;;;4.70;2.10;;;;;;101152.64;;;;104330;1318;34535;-35
2022/07/02 11:07:47;;;;;;;3.70;2.10;;;;;;101155.92;;;;104330;1319;35068;-33
2022/07/02 11:10:29;;;;;;;4.10;2.50;;;;;;101153.43;;;;104374;1317;35211;-35
2022/07/02 11:13:05;;;;;;;5.30;2.70;;;;;;101151.80;;;;104332;1317;34352;-38
2022/07/02 11:15:39;;;;;;;4.60;2.70;;;;;;101155.34;;;;104238;1318;35841;-34
2022/07/02 11:18:13;;;;;;;5.70;2.50;;;;;;101153.11;;;;104331;1316;34197;-34
2022/07/02 11:20:46;;;;;;;3.90;2.20;;;;;;101149.91;;;;104280;1318;35418;-36
2022/07/02 11:23:19;;;;;;;4.70;2.40;;;;;;101150.85;;;;104324;1317;35755;-36
2022/07/02 11:25:51;;;;;;;4.10;2.30;;;;;;101152.60;;;;104305;1314;35466;-35
2022/07/02 11:28:25;;;;;;;4.30;2.60;;;;;;101154.69;;;;104202;1313;34535;-36
2022/07/02 11:31:02;;;;;;;4.00;2.50;;;;;;101151.23;;;;104302;1310;35271;-36
2022/07/02 11:33:34;;;;;;;4.50;2.30;;;;;;101147.59;;;;104302;1317;34036;-35
2022/07/02 11:36:08;;;;;;;5.30;2.70;;;;;;101145.64;;;;104354;1314;34498;-35
2022/07/02 11:38:44;;;;;;;3.90;2.20;;;;;;101155.84;;;;104330;1317;35140;-35
2022/07/02 11:41:25;;;;;;;3.90;2.20;;;;;;101151.50;;;;104316;1318;35543;-38
2022/07/02 11:43:59;;;;;;;3.90;2.40;;;;;;101153.12;;;;104343;1310;33645;-39
2022/07/02 11:46:32;;;;;;;3.40;2.00;;;;;;101154.77;;;;104312;1318;35044;-40
2022/07/02 11:49:03;;;;;;;;;;;;;;101160.34;;;;104235;1309;33799;-38
2022/07/02 11:51:36;;;;;;;5.20;2.50;;;;;;101162.99;;;;104099;1314;36423;-38
2022/07/02 11:54:10;;;;;;;4.20;2.10;;;;;;101160.98;;;;106105;1317;31272;-38
2022/07/02 11:56:44;;;;;;;3.80;2.00;;;;;;101167.01;;;;104245;1317;35705;-38
2022/07/02 11:59:18;;;;;;;4.60;2.10;;;;;;101174.16;;;;104125;1318;34240;-37
2022/07/02 12:01:52;;;;;;;4.20;2.30;;;;;;101177.41;;;;104147;1314;35108;-37
2022/07/02 12:04:25;;;;;;;4.20;2.50;;;;;;101177.75;;;;104110;1317;34086;-35
2022/07/02 12:06:58;;;;;;;;;;;;;;101181.64;;;;104732;1309;34996;-36
2022/07/02 12:09:30;;;;;;;3.60;2.00;;;;;;101188.50;;;;104304;1318;35454;-35
2022/07/02 12:12:03;;;;;;;3.70;2.00;;;;;;101192.55;;;;104217;1310;35273;-36
2022/07/02 12:14:34;;;;;;;;;;;;;;101193.34;;;;104338;1314;35782;-36
2022/07/02 12:17:12;;;;;;;3.50;1.90;;;;;;101197.71;;;;104186;1316;34630;-35
2022/07/02 12:19:44;;;;;;;3.10;1.60;;;;;;101198.16;;;;104328;1316;36208;-38
2022/07/02 12:22:25;;;;;;;4.70;1.70;;;;;;101204.64;;;;104337;1316;35193;-38
2022/07/02 12:24:58;;;;;;;4.90;1.90;;;;;;101208.54;;;;104317;1317;35808;-35
2022/07/02 12:27:32;;;;;;;4.90;2.20;;;;;;101207.36;;;;104284;1310;33936;-35
2022/07/02 12:30:14;;;;;;;3.50;1.70;;;;;;101215.67;;;;104150;1317;250417;-35
2022/07/02 12:32:55;;;;;;;3.80;1.70;;;;;;101212.52;;;;104338;1315;34269;-35
2022/07/02 12:35:27;;;;;;;3.10;1.60;;;;;;101206.23;;;;104315;1313;34931;-35
2022/07/02 12:38:02;;;;;;;2.60;1.30;;;;;;101207.81;;;;104306;1315;35277;-35
2022/07/02 12:40:34;;;;;;;3.50;1.60;;;;;;101208.38;;;;104306;1310;33961;-35
2022/07/02 12:43:07;;;;;;;2.60;1.30;;;;;;101207.42;;;;104329;1315;35511;-36
2022/07/02 12:45:42;;;;;;;3.80;1.70;;;;;;101211.30;;;;104306;1317;33815;-35
2022/07/02 12:48:16;;;;;;;3.20;1.50;;;;;;101211.42;;;;104201;1316;34874;-36
2022/07/02 12:50:51;;;;;;;3.20;1.40;;;;;;101210.32;;;;104370;1314;33447;-36
2022/07/02 12:53:24;;;;;;;3.50;1.60;;;;;;101211.81;;;;104347;1317;33894;-36
2022/07/02 12:56:00;;;;;;;3.30;1.60;;;;;;101212.75;;;;104360;1317;34151;-36
2022/07/02 12:58:33;;;;;;;3.30;1.40;;;;;;101216.52;;;;104457;1314;32412;-35
2022/07/02 13:01:06;;;;;;;2.80;1.50;;;;;;101215.06;;;;104492;1317;35757;-35
2022/07/02 13:03:38;;;;;;;4.20;1.80;;;;;;101219.44;;;;104451;1317;33331;-35
2022/07/02 13:06:10;;;;;;;2.80;1.60;;;;;;101225.09;;;;104247;1318;35628;-35
2022/07/02 13:08:43;;;;;;;4.20;1.70;;;;;;101225.71;;;;104446;1310;32841;-35
2022/07/02 13:11:15;;;;;;;3.30;1.40;;;;;;101222.33;;;;104461;1318;33534;-35
2022/07/02 13:13:47;;;;;;;3.10;1.30;;;;;;101218.58;;;;104523;1317;34418;-35
2022/07/02 13:16:20;;;;;;;4.20;1.50;;;;;;101218.02;;;;104472;1316;34917;-35
2022/07/02 13:18:53;;;;;;;2.50;1.30;;;;;;101218.29;;;;104518;1317;33624;-35
2022/07/02 13:21:25;;;;;;;3.20;1.60;;;;;;101209.89;;;;104482;1317;35415;-35
2022/07/02 13:23:57;;;;;;;2.20;1.40;;;;;;101211.71;;;;104564;1316;35091;-35
2022/07/02 13:26:30;;;;;;;3.00;1.60;;;;;;101216.29;;;;104493;1313;35615;-35
2022/07/02 13:29:02;;;;;;;5.30;1.40;;;;;;101216.52;;;;104464;1310;34528;-35